createdAt,value
2017-10-01T00:00:29.637Z,28.46
2017-10-01T00:02:59.756Z,28.47
2017-10-01T00:05:29.980Z,28.47
2017-10-01T00:07:59.595Z,28.47
2017-10-01T00:10:30.787Z,28.48
2017-10-01T00:13:03.431Z,27.92
2017-10-01T00:15:35.238Z,28.47
2017-10-01T00:18:06.668Z,27.94
2017-10-01T00:20:39.072Z,28.48
2017-10-01T00:23:14.640Z,28.46
2017-10-01T00:25:44.757Z,28.45
2017-10-01T00:28:15.060Z,28.43
2017-10-01T00:30:46.041Z,28.43
2017-10-01T00:33:15.489Z,28.37
2017-10-01T00:35:46.436Z,28.43
2017-10-01T00:38:16.105Z,28.44
2017-10-01T00:40:46.154Z,28.32
2017-10-01T00:43:15.696Z,28.31
2017-10-01T00:45:45.544Z,28.42
2017-10-01T00:48:15.300Z,28.42
2017-10-01T00:50:44.997Z,28.38
2017-10-01T00:53:14.837Z,28.41
2017-10-01T00:55:44.682Z,28.41
2017-10-01T00:58:15.129Z,28.42
2017-10-01T01:00:45.123Z,28.39
2017-10-01T01:03:19.555Z,28.40
2017-10-01T01:05:54.992Z,28.41
2017-10-01T01:08:36.764Z,28.42
2017-10-01T01:11:07.945Z,28.40
2017-10-01T01:13:38.983Z,28.39
2017-10-01T01:16:09.114Z,28.38
2017-10-01T01:18:38.875Z,28.38
2017-10-01T01:21:10.140Z,28.15
2017-10-01T01:23:40.243Z,28.39
2017-10-01T01:26:09.937Z,28.39
2017-10-01T01:28:40.172Z,28.29
2017-10-01T01:31:09.828Z,28.40
2017-10-01T01:33:39.301Z,28.40
2017-10-01T01:36:10.850Z,28.39
2017-10-01T01:38:42.245Z,28.38
2017-10-01T01:41:11.781Z,28.38
2017-10-01T01:43:44.442Z,28.36
2017-10-01T01:46:14.678Z,28.37
2017-10-01T01:48:44.938Z,28.36
2017-10-01T01:51:15.335Z,28.36
2017-10-01T01:53:45.310Z,28.36
2017-10-01T01:56:15.120Z,28.38
2017-10-01T01:58:45.304Z,28.38
2017-10-01T02:01:18.831Z,28.38
2017-10-01T02:03:56.299Z,27.96
2017-10-01T02:06:26.788Z,28.35
2017-10-01T02:09:04.926Z,28.37
2017-10-01T02:11:35.161Z,28.36
2017-10-01T02:14:06.184Z,28.25
2017-10-01T02:16:35.939Z,28.29
2017-10-01T02:19:05.878Z,28.37
2017-10-01T02:21:36.162Z,28.36
2017-10-01T02:24:06.036Z,28.31
2017-10-01T02:26:35.621Z,28.23
2017-10-01T02:29:05.985Z,28.37
2017-10-01T02:31:35.748Z,28.38
2017-10-01T02:34:05.568Z,28.39
2017-10-01T02:36:36.021Z,28.38
2017-10-01T02:39:06.444Z,28.37
2017-10-01T02:41:36.946Z,28.35
2017-10-01T02:44:07.732Z,28.35
2017-10-01T02:46:37.832Z,28.00
2017-10-01T02:49:07.638Z,28.01
2017-10-01T02:51:38.063Z,28.36
2017-10-01T02:54:08.856Z,28.35
2017-10-01T02:56:38.533Z,28.34
2017-10-01T02:59:09.293Z,28.34
2017-10-01T03:01:39.684Z,28.01
2017-10-01T03:04:10.476Z,28.22
2017-10-01T03:06:40.558Z,28.36
2017-10-01T03:09:11.641Z,28.25
2017-10-01T03:11:57.607Z,28.25
2017-10-01T03:14:27.892Z,28.25
2017-10-01T03:16:59.084Z,28.37
2017-10-01T03:22:26.683Z,28.37
2017-10-01T03:24:56.787Z,28.38
2017-10-01T03:27:27.036Z,28.37
2017-10-01T03:29:56.860Z,28.37
2017-10-01T03:32:28.105Z,28.37
2017-10-01T03:34:58.627Z,28.38
2017-10-01T03:37:28.824Z,28.37
2017-10-01T03:39:58.737Z,28.37
2017-10-01T03:42:28.317Z,28.36
2017-10-01T03:44:59.503Z,28.01
2017-10-01T03:47:29.408Z,28.36
2017-10-01T03:50:00.135Z,28.12
2017-10-01T03:52:29.665Z,28.36
2017-10-01T03:55:00.029Z,28.33
2017-10-01T03:57:36.661Z,28.35
2017-10-01T04:00:06.618Z,28.35
2017-10-01T04:02:36.873Z,28.03
2017-10-01T04:05:06.686Z,28.35
2017-10-01T04:07:37.246Z,28.34
2017-10-01T04:10:07.192Z,28.34
2017-10-01T04:12:43.493Z,28.34
2017-10-01T04:15:13.536Z,28.32
2017-10-01T04:17:43.650Z,28.33
2017-10-01T04:20:13.988Z,28.33
2017-10-01T04:22:43.927Z,28.33
2017-10-01T04:25:15.371Z,28.23
2017-10-01T04:27:44.925Z,28.22
2017-10-01T04:30:14.638Z,28.33
2017-10-01T04:32:46.194Z,28.32
2017-10-01T04:35:16.315Z,28.33
2017-10-01T04:37:54.049Z,28.33
2017-10-01T04:40:33.039Z,28.19
2017-10-01T04:43:06.000Z,28.32
2017-10-01T04:45:36.465Z,28.33
2017-10-01T04:48:11.071Z,27.77
2017-10-01T04:50:41.449Z,28.31
2017-10-01T04:53:11.430Z,28.20
2017-10-01T04:55:41.333Z,28.32
2017-10-01T04:58:13.457Z,28.33
2017-10-01T05:00:43.586Z,28.32
2017-10-01T05:03:14.956Z,28.31
2017-10-01T05:05:45.332Z,28.31
2017-10-01T05:08:15.104Z,28.29
2017-10-01T05:10:45.076Z,28.30
2017-10-01T05:13:16.033Z,28.08
2017-10-01T05:15:48.103Z,28.31
2017-10-01T05:18:19.824Z,27.73
2017-10-01T05:20:52.322Z,28.21
2017-10-01T05:23:22.417Z,28.31
2017-10-01T05:25:54.480Z,27.26
2017-10-01T05:28:24.108Z,28.30
2017-10-01T05:30:54.968Z,28.31
2017-10-01T05:33:24.859Z,28.31
2017-10-01T05:35:54.644Z,28.08
2017-10-01T05:38:24.244Z,28.30
2017-10-01T05:40:53.956Z,28.30
2017-10-01T05:43:23.618Z,28.18
2017-10-01T05:45:55.127Z,28.28
2017-10-01T05:48:26.241Z,28.26
2017-10-01T05:50:56.109Z,28.25
2017-10-01T05:53:26.040Z,28.13
2017-10-01T05:55:56.745Z,27.90
2017-10-01T05:58:26.977Z,28.27
2017-10-01T06:00:56.645Z,28.28
2017-10-01T06:03:27.113Z,28.26
2017-10-01T06:05:58.091Z,28.18
2017-10-01T06:08:27.948Z,28.10
2017-10-01T06:10:58.138Z,27.65
2017-10-01T06:13:28.157Z,28.08
2017-10-01T06:15:57.842Z,28.30
2017-10-01T06:18:27.908Z,28.30
2017-10-01T06:20:58.309Z,28.08
2017-10-01T06:23:29.406Z,28.29
2017-10-01T06:25:59.846Z,28.26
2017-10-01T06:28:30.237Z,28.30
2017-10-01T06:31:02.925Z,28.18
2017-10-01T06:33:34.926Z,28.08
2017-10-01T06:36:04.959Z,28.09
2017-10-01T06:38:35.072Z,28.30
2017-10-01T06:41:05.160Z,28.19
2017-10-01T06:43:35.467Z,28.30
2017-10-01T06:46:05.112Z,28.21
2017-10-01T06:48:35.485Z,28.30
2017-10-01T06:51:06.155Z,28.30
2017-10-01T06:53:35.861Z,28.30
2017-10-01T06:56:05.808Z,28.29
2017-10-01T06:58:36.361Z,28.17
2017-10-01T07:01:06.226Z,28.29
2017-10-01T07:03:35.869Z,28.18
2017-10-01T07:06:05.469Z,28.30
2017-10-01T07:08:34.950Z,28.29
2017-10-01T07:11:04.711Z,28.30
2017-10-01T07:13:34.474Z,28.30
2017-10-01T07:16:04.605Z,28.30
2017-10-01T07:18:34.733Z,28.05
2017-10-01T07:21:06.761Z,28.05
2017-10-01T07:23:37.283Z,28.29
2017-10-01T07:26:08.682Z,28.28
2017-10-01T07:28:39.944Z,28.29
2017-10-01T07:31:11.531Z,28.29
2017-10-01T07:33:45.594Z,28.24
2017-10-01T07:36:16.055Z,28.18
2017-10-01T07:38:46.023Z,28.30
2017-10-01T07:41:17.280Z,28.29
2017-10-01T07:43:49.915Z,27.73
2017-10-01T07:46:21.462Z,28.34
2017-10-01T07:48:58.284Z,28.34
2017-10-01T07:51:35.557Z,28.35
2017-10-01T07:54:07.852Z,28.24
2017-10-01T07:56:39.919Z,28.37
2017-10-01T07:59:10.202Z,28.38
2017-10-01T08:01:40.947Z,28.37
2017-10-01T08:04:14.402Z,28.38
2017-10-01T08:06:44.527Z,28.38
2017-10-01T08:09:14.828Z,28.39
2017-10-01T08:11:45.296Z,27.72
2017-10-01T08:14:15.344Z,28.39
2017-10-01T08:16:45.123Z,28.39
2017-10-01T08:19:15.404Z,28.39
2017-10-01T08:21:46.627Z,28.40
2017-10-01T08:24:16.111Z,28.29
2017-10-01T08:26:46.023Z,28.40
2017-10-01T08:29:16.434Z,28.40
2017-10-01T08:31:46.293Z,28.39
2017-10-01T08:34:15.971Z,28.40
2017-10-01T08:36:46.062Z,28.42
2017-10-01T08:39:16.795Z,28.42
2017-10-01T08:41:46.941Z,28.43
2017-10-01T08:44:17.258Z,28.44
2017-10-01T08:46:50.778Z,28.45
2017-10-01T08:49:20.898Z,28.41
2017-10-01T08:51:55.150Z,27.94
2017-10-01T08:54:28.532Z,28.52
2017-10-01T08:56:59.436Z,28.54
2017-10-01T08:59:33.999Z,28.56
2017-10-01T09:02:06.861Z,28.56
2017-10-01T09:04:36.867Z,28.43
2017-10-01T09:07:07.886Z,28.54
2017-10-01T09:09:41.879Z,28.53
2017-10-01T09:12:12.372Z,28.42
2017-10-01T09:14:44.537Z,28.56
2017-10-01T09:17:15.540Z,28.56
2017-10-01T09:19:49.543Z,28.34
2017-10-01T09:22:20.809Z,28.58
2017-10-01T09:24:52.472Z,28.58
2017-10-01T09:27:22.360Z,28.58
2017-10-01T09:29:55.046Z,28.59
2017-10-01T09:32:25.415Z,28.58
2017-10-01T09:34:57.016Z,28.35
2017-10-01T09:37:28.490Z,28.59
2017-10-01T09:39:58.011Z,28.38
2017-10-01T09:42:28.901Z,28.50
2017-10-01T09:44:59.584Z,28.40
2017-10-01T09:47:31.332Z,28.64
2017-10-01T09:50:02.010Z,28.18
2017-10-01T09:52:33.028Z,28.63
2017-10-01T09:55:04.363Z,28.62
2017-10-01T09:57:34.579Z,28.38
2017-10-01T10:00:10.556Z,28.59
2017-10-01T10:02:41.051Z,28.40
2017-10-01T10:05:24.452Z,28.65
2017-10-01T10:08:16.827Z,28.55
2017-10-01T10:13:46.373Z,28.67
2017-10-01T10:16:17.866Z,28.55
2017-10-01T10:18:50.337Z,28.53
2017-10-01T10:21:20.677Z,28.64
2017-10-01T10:23:55.142Z,28.64
2017-10-01T10:26:25.972Z,28.64
2017-10-01T10:28:56.133Z,28.64
2017-10-01T10:31:27.058Z,27.98
2017-10-01T10:33:58.754Z,28.52
2017-10-01T10:36:29.360Z,28.62
2017-10-01T10:39:00.536Z,28.62
2017-10-01T10:41:30.233Z,28.51
2017-10-01T10:44:00.677Z,28.62
2017-10-01T10:46:30.582Z,28.62
2017-10-01T10:49:00.513Z,28.51
2017-10-01T10:51:30.854Z,28.53
2017-10-01T10:54:01.073Z,28.63
2017-10-01T10:56:31.249Z,28.53
2017-10-01T10:59:01.134Z,28.65
2017-10-01T11:01:31.569Z,28.65
2017-10-01T11:04:01.534Z,28.54
2017-10-01T11:06:31.333Z,28.67
2017-10-01T11:09:01.189Z,28.56
2017-10-01T11:11:30.811Z,28.69
2017-10-01T11:14:01.664Z,28.69
2017-10-01T11:16:31.536Z,28.70
2017-10-01T11:19:01.526Z,28.71
2017-10-01T11:21:31.146Z,28.71
2017-10-01T11:24:02.240Z,28.72
2017-10-01T11:26:32.328Z,28.73
2017-10-01T11:29:02.469Z,28.65
2017-10-01T11:31:32.975Z,28.76
2017-10-01T11:34:03.888Z,28.76
2017-10-01T11:36:33.573Z,28.77
2017-10-01T11:39:05.694Z,28.77
2017-10-01T11:41:36.004Z,28.65
2017-10-01T11:44:06.073Z,28.77
2017-10-01T11:46:36.358Z,28.78
2017-10-01T11:49:09.511Z,28.79
2017-10-01T11:51:39.399Z,28.69
2017-10-01T11:54:09.473Z,28.80
2017-10-01T11:56:39.591Z,28.81
2017-10-01T11:59:09.333Z,28.82
2017-10-01T12:01:39.249Z,28.82
2017-10-01T12:04:09.654Z,28.60
2017-10-01T12:06:39.579Z,28.84
2017-10-01T12:09:10.901Z,28.61
2017-10-01T12:11:40.847Z,28.84
2017-10-01T12:14:11.322Z,28.84
2017-10-01T12:16:41.108Z,28.85
2017-10-01T12:19:11.351Z,28.86
2017-10-01T12:21:41.314Z,28.87
2017-10-01T12:24:12.153Z,28.87
2017-10-01T12:26:41.627Z,28.88
2017-10-01T12:29:11.933Z,28.77
2017-10-01T12:31:42.559Z,28.89
2017-10-01T12:34:12.295Z,28.89
2017-10-01T12:36:42.132Z,28.89
2017-10-01T12:39:13.728Z,28.88
2017-10-01T12:41:44.651Z,28.88
2017-10-01T12:44:16.117Z,28.88
2017-10-01T12:46:47.103Z,28.89
2017-10-01T12:49:16.645Z,28.89
2017-10-01T12:51:46.926Z,28.89
2017-10-01T12:54:17.602Z,28.81
2017-10-01T12:56:48.741Z,28.90
2017-10-01T12:59:20.176Z,28.91
2017-10-01T13:01:54.726Z,28.90
2017-10-01T13:04:24.401Z,28.75
2017-10-01T13:06:57.015Z,28.90
2017-10-01T13:09:26.985Z,28.91
2017-10-01T13:11:56.990Z,28.78
2017-10-01T13:14:27.443Z,28.89
2017-10-01T13:16:57.404Z,28.90
2017-10-01T13:19:27.394Z,28.91
2017-10-01T13:21:57.684Z,28.90
2017-10-01T13:24:27.860Z,28.93
2017-10-01T13:26:57.198Z,28.83
2017-10-01T13:29:27.337Z,28.94
2017-10-01T13:31:56.895Z,28.83
2017-10-01T13:34:26.430Z,28.94
2017-10-01T13:36:56.143Z,28.95
2017-10-01T13:39:25.710Z,28.84
2017-10-01T13:41:55.134Z,28.62
2017-10-01T13:44:26.059Z,28.97
2017-10-01T13:46:55.562Z,28.97
2017-10-01T13:49:25.140Z,28.97
2017-10-01T13:51:54.868Z,28.98
2017-10-01T13:54:24.393Z,28.87
2017-10-01T13:56:54.386Z,28.98
2017-10-01T13:59:24.655Z,28.87
2017-10-01T14:01:54.255Z,28.98
2017-10-01T14:04:23.954Z,28.87
2017-10-01T14:06:54.507Z,28.98
2017-10-01T14:09:25.136Z,28.97
2017-10-01T14:11:55.292Z,28.98
2017-10-01T14:14:26.290Z,28.99
2017-10-01T14:16:57.588Z,28.84
2017-10-01T14:19:27.604Z,29.01
2017-10-01T14:21:59.099Z,29.00
2017-10-01T14:24:28.961Z,29.00
2017-10-01T14:27:00.286Z,28.77
2017-10-01T14:29:29.853Z,28.98
2017-10-01T14:32:03.499Z,28.97
2017-10-01T14:34:33.056Z,28.97
2017-10-01T14:37:02.688Z,28.86
2017-10-01T14:39:33.589Z,28.62
2017-10-01T14:42:05.133Z,28.74
2017-10-01T14:44:34.887Z,28.95
2017-10-01T14:47:04.834Z,28.96
2017-10-01T14:49:34.942Z,28.96
2017-10-01T14:52:05.926Z,28.95
2017-10-01T14:54:36.118Z,28.62
2017-10-01T14:57:06.911Z,28.94
2017-10-01T14:59:37.438Z,28.94
2017-10-01T15:02:09.142Z,28.94
2017-10-01T15:04:39.928Z,28.84
2017-10-01T15:07:09.540Z,28.82
2017-10-01T15:09:40.576Z,28.93
2017-10-01T15:12:10.392Z,28.81
2017-10-01T15:14:40.270Z,28.93
2017-10-01T15:17:11.018Z,28.93
2017-10-01T15:19:41.207Z,28.94
2017-10-01T15:22:11.586Z,28.72
2017-10-01T15:24:41.916Z,28.94
2017-10-01T15:27:11.673Z,28.95
2017-10-01T15:29:41.743Z,28.77
2017-10-01T15:32:13.072Z,28.86
2017-10-01T15:34:43.125Z,28.83
2017-10-01T15:37:14.876Z,28.83
2017-10-01T15:39:45.472Z,28.95
2017-10-01T15:42:15.036Z,28.82
2017-10-01T15:44:44.634Z,28.49
2017-10-01T15:47:14.369Z,28.92
2017-10-01T15:49:44.094Z,28.92
2017-10-01T15:52:13.772Z,28.92
2017-10-01T15:54:45.735Z,28.48
2017-10-01T15:57:16.379Z,28.93
2017-10-01T15:59:46.089Z,28.93
2017-10-01T16:02:16.368Z,28.93
2017-10-01T16:04:46.160Z,28.81
2017-10-01T16:07:18.790Z,28.93
2017-10-01T16:09:49.271Z,28.95
2017-10-01T16:12:19.940Z,28.94
2017-10-01T16:14:51.001Z,28.93
2017-10-01T16:17:21.643Z,28.92
2017-10-01T16:19:51.654Z,28.78
2017-10-01T16:22:21.565Z,28.85
2017-10-01T16:24:51.476Z,28.88
2017-10-01T16:27:25.158Z,28.57
2017-10-01T16:29:56.762Z,28.89
2017-10-01T16:32:26.653Z,28.88
2017-10-01T16:35:09.802Z,28.87
2017-10-01T16:37:39.843Z,28.86
2017-10-01T16:40:09.807Z,28.82
2017-10-01T16:42:39.330Z,28.38
2017-10-01T16:45:10.729Z,28.38
2017-10-01T16:47:40.641Z,28.82
2017-10-01T16:50:15.119Z,28.82
2017-10-01T16:52:45.016Z,28.82
2017-10-01T16:55:15.917Z,28.82
2017-10-01T16:57:49.593Z,28.82
2017-10-01T17:00:19.858Z,28.81
2017-10-01T17:02:50.459Z,28.82
2017-10-01T17:05:21.391Z,28.81
2017-10-01T17:07:53.242Z,28.70
2017-10-01T17:10:25.912Z,28.47
2017-10-01T17:12:56.514Z,28.79
2017-10-01T17:15:28.518Z,28.79
2017-10-01T17:17:58.239Z,28.77
2017-10-01T17:20:29.359Z,28.77
2017-10-01T17:23:00.054Z,28.65
2017-10-01T17:25:29.908Z,28.76
2017-10-01T17:28:00.587Z,28.74
2017-10-01T17:30:33.133Z,28.74
2017-10-01T17:33:03.319Z,28.63
2017-10-01T17:35:34.708Z,28.29
2017-10-01T17:38:04.465Z,28.30
2017-10-01T17:40:41.702Z,28.76
2017-10-01T17:43:12.196Z,28.76
2017-10-01T17:45:42.312Z,28.75
2017-10-01T17:48:12.729Z,28.74
2017-10-01T17:50:43.501Z,28.74
2017-10-01T17:53:14.174Z,28.74
2017-10-01T17:55:46.840Z,28.72
2017-10-01T17:58:19.024Z,28.60
2017-10-01T18:00:50.223Z,28.59
2017-10-01T18:03:20.487Z,28.70
2017-10-01T18:05:50.319Z,28.70
2017-10-01T18:08:20.139Z,28.58
2017-10-01T18:10:50.433Z,28.69
2017-10-01T18:13:21.522Z,28.59
2017-10-01T18:15:52.307Z,28.69
2017-10-01T18:18:26.351Z,28.69
2017-10-01T18:20:56.851Z,28.69
2017-10-01T18:23:26.940Z,28.69
2017-10-01T18:26:00.644Z,28.69
2017-10-01T18:28:32.789Z,28.68
2017-10-01T18:31:04.485Z,28.42
2017-10-01T18:33:35.355Z,28.65
2017-10-01T18:36:10.707Z,28.65
2017-10-01T18:38:41.208Z,28.64
2017-10-01T18:41:14.609Z,28.63
2017-10-01T18:43:46.070Z,28.40
2017-10-01T18:46:18.758Z,28.50
2017-10-01T18:48:49.807Z,28.71
2017-10-01T18:51:21.553Z,28.68
2017-10-01T18:53:52.760Z,28.64
2017-10-01T18:56:22.930Z,28.62
2017-10-01T18:58:53.229Z,28.61
2017-10-01T19:01:23.114Z,28.60
2017-10-01T19:03:52.903Z,28.58
2017-10-01T19:06:23.238Z,28.58
2017-10-01T19:09:02.777Z,28.57
2017-10-01T19:11:34.542Z,28.56
2017-10-01T19:14:06.001Z,28.54
2017-10-01T19:16:48.896Z,28.19
2017-10-01T19:19:19.154Z,28.35
2017-10-01T19:21:53.612Z,28.10
2017-10-01T19:24:23.664Z,28.54
2017-10-01T19:26:55.295Z,28.43
2017-10-01T19:29:25.419Z,28.53
2017-10-01T19:31:56.347Z,28.40
2017-10-01T19:34:27.924Z,28.28
2017-10-01T19:36:58.282Z,28.50
2017-10-01T19:39:27.991Z,28.50
2017-10-01T19:41:58.728Z,28.50
2017-10-01T19:44:28.897Z,28.38
2017-10-01T19:46:58.990Z,28.26
2017-10-01T19:49:28.599Z,28.50
2017-10-01T19:51:58.706Z,28.49
2017-10-01T19:54:29.149Z,28.49
2017-10-01T19:56:59.243Z,28.48
2017-10-01T19:59:29.788Z,28.38
2017-10-01T20:02:02.669Z,28.37
2017-10-01T20:04:34.606Z,28.37
2017-10-01T20:07:06.672Z,28.48
2017-10-01T20:09:36.895Z,28.48
2017-10-01T20:12:07.737Z,28.14
2017-10-01T20:14:37.697Z,28.25
2017-10-01T20:17:08.010Z,28.49
2017-10-01T20:19:38.250Z,28.49
2017-10-01T20:22:08.682Z,28.26
2017-10-01T20:24:38.646Z,28.46
2017-10-01T20:27:09.174Z,28.36
2017-10-01T20:29:38.836Z,28.36
2017-10-01T20:32:09.774Z,28.47
2017-10-01T20:34:40.197Z,28.35
2017-10-01T20:37:10.178Z,28.46
2017-10-01T20:39:39.893Z,28.45
2017-10-01T20:42:11.959Z,28.33
2017-10-01T20:44:43.837Z,28.21
2017-10-01T20:47:16.736Z,28.43
2017-10-01T20:49:49.606Z,28.33
2017-10-01T20:52:20.898Z,28.32
2017-10-01T20:54:52.303Z,28.31
2017-10-01T20:57:24.399Z,28.42
2017-10-01T20:59:56.225Z,28.42
2017-10-01T21:02:26.977Z,28.42
2017-10-01T21:05:00.742Z,28.43
2017-10-01T21:10:50.345Z,28.31
2017-10-01T21:13:29.516Z,28.40
2017-10-01T21:16:09.728Z,28.40
2017-10-01T21:19:00.962Z,28.39
2017-10-01T21:21:32.204Z,28.35
2017-10-01T21:24:02.986Z,28.35
2017-10-01T21:26:34.391Z,28.35
2017-10-01T21:29:09.473Z,28.36
2017-10-01T21:31:41.540Z,28.35
2017-10-01T21:34:13.070Z,28.35
2017-10-01T21:36:43.369Z,28.11
2017-10-01T21:39:14.286Z,28.35
2017-10-01T21:41:44.040Z,28.23
2017-10-01T21:44:13.529Z,28.34
2017-10-01T21:46:43.417Z,28.21
2017-10-01T21:49:14.585Z,28.33
2017-10-01T21:51:44.533Z,28.33
2017-10-01T21:54:13.992Z,28.32
2017-10-01T21:56:43.998Z,28.32
2017-10-01T21:59:13.531Z,28.32
2017-10-01T22:01:43.540Z,28.33
2017-10-01T22:04:13.751Z,28.33
2017-10-01T22:06:43.874Z,28.34
2017-10-01T22:09:13.502Z,28.34
2017-10-01T22:11:43.590Z,28.33
2017-10-01T22:14:13.755Z,28.32
2017-10-01T22:16:44.515Z,28.19
2017-10-01T22:19:14.367Z,28.31
2017-10-01T22:21:44.579Z,28.02
2017-10-01T22:24:14.181Z,28.30
2017-10-01T22:26:44.047Z,28.20
2017-10-01T22:29:14.509Z,27.89
2017-10-01T22:31:46.519Z,28.10
2017-10-01T22:34:16.974Z,28.34
2017-10-01T22:36:47.166Z,28.33
2017-10-01T22:39:17.186Z,28.31
2017-10-01T22:41:49.428Z,28.20
2017-10-01T22:44:19.105Z,28.30
2017-10-01T22:46:50.271Z,27.96
2017-10-01T22:49:20.814Z,28.30
2017-10-01T22:51:50.913Z,28.31
2017-10-01T22:54:20.636Z,28.29
2017-10-01T22:56:50.739Z,27.26
2017-10-01T22:59:20.499Z,28.16
2017-10-01T23:01:50.383Z,28.28
2017-10-01T23:04:20.534Z,28.29
2017-10-01T23:06:53.683Z,28.29
2017-10-01T23:09:23.801Z,28.30
2017-10-01T23:11:54.359Z,28.29
2017-10-01T23:14:23.883Z,28.30
2017-10-01T23:16:53.763Z,28.29
2017-10-01T23:19:24.228Z,28.26
2017-10-01T23:21:56.623Z,28.18
2017-10-01T23:24:26.355Z,28.29
2017-10-01T23:26:57.102Z,28.29
2017-10-01T23:29:26.859Z,28.29
2017-10-01T23:31:58.528Z,27.97
2017-10-01T23:34:29.342Z,28.11
2017-10-01T23:37:02.002Z,27.87
2017-10-01T23:39:35.562Z,27.63
2017-10-01T23:42:10.293Z,28.32
2017-10-01T23:44:40.016Z,28.32
2017-10-01T23:47:10.187Z,28.20
2017-10-01T23:49:45.779Z,27.75
2017-10-01T23:52:16.719Z,28.31
2017-10-01T23:54:46.497Z,28.20
2017-10-01T23:57:18.217Z,28.14
2017-10-01T23:59:49.332Z,28.20
